Alice International Airport
KALI : now visible

Airfield :











YOU CAN JOIN US ON...

 
LOGIN :

Register | Disclaimer

   EN    FR    IT 

 









Legend :    VFR   Marginal VFR   IFR   Intensive IFR   Very Intensive IFR
Visi :
Ceiling :
>= 8 km
>= 3000ft
5 to 8 km
1000 to 3000 ft
1500m to 5 km
500 to 1000 ft
800 to 1500m
200 to 500 ft
< 800m
< 200 ft
Symbols :   Thunderstorms  Fog  Heavy snow  Heavy precipitations  Wind > 20 kt






- Airport Elevation : 178 ft


KALI - Alice International

CURRENT METAR :
  • 240053Z AUTO 10006KT 1 1/2SM BR OVC002 19/18 A2991 RMK AO2 RAE04 SLP126 P0000 T01890183

EXPIRED METARs :
  • 240013Z AUTO 10007KT 1 3/4SM BR OVC002 19/18 A2991 RMK AO2 RAE04 P0000 T01890183
  • 240005Z AUTO 11007KT 3SM BR OVC002 19/18 A2991 RMK AO2 RAE04 P0000 T01890183
  • 232337Z AUTO 10009KT 1 3/4SM BR OVC003 19/18 A2990 RMK AO2 RAB02E11 P0000 T01890183
  • 232322Z AUTO 10007KT 2SM BR OVC004 19/18 A2990 RMK AO2 RAB02E11 P0000 T01890183
  • 232315Z AUTO 09007KT 3SM BR OVC004 19/18 A2990 RMK AO2 RAB02E11 P0000 T01890183
  • 232253Z AUTO 09007KT 6SM BR OVC005 19/18 A2990 RMK AO2 SLP124 T01940183

TAF KALI
Valid from the 24 at 00:00 until the 25 at 00:00 UTC


232343Z 2400/2424 10008KT 2SM BR OVC003
TEMPO 2402/2406 1/2SM FG OVC002
FM240600 11005KT 1/2SM -DZ FG OVC002
TEMPO 2409/2412 1/4SM -DZ FG OVC001
FM241200 15007KT 3SM BR OVC003
FM241600 17012KT P6SM BKN010
FM242100 17014G18KT P6SM BKN025
KZHU FIR / North America



MET'MAP, your aeronautical weather chart ! - Copyright ORBIFLY December 2007 - Disclaimer

ORBIFLY MET'MAP TEAM :

Programming & Development : Alexandra Zaïnal
Concept & original design : Baudouin d'Aumeries
Assistance for programming : Marc-Olivier Méhu
Technical & hardware support : Manuel Goepfert

Contact : metmap@orbifly.com




SOURCES & CREDITS :

   NOAA       Earth
Advisory